sensor_id;sensor_type;location;lat;lon;timestamp;P1;durP1;ratioP1;P2;durP2;ratioP2
75504;SDS011;64085;54.974;73.410;2023-07-09T00:00:12;3.92;;;1.95;;
75504;SDS011;64085;54.974;73.410;2023-07-09T00:02:40;4.80;;;2.33;;
75504;SDS011;64085;54.974;73.410;2023-07-09T00:05:10;4.43;;;3.25;;
75504;SDS011;64085;54.974;73.410;2023-07-09T00:07:42;2.00;;;1.80;;
75504;SDS011;64085;54.974;73.410;2023-07-09T00:10:19;5.18;;;2.33;;
75504;SDS011;64085;54.974;73.410;2023-07-09T00:12:46;3.22;;;2.33;;
75504;SDS011;64085;54.974;73.410;2023-07-09T00:15:12;3.10;;;2.70;;
75504;SDS011;64085;54.974;73.410;2023-07-09T00:17:41;2.60;;;2.28;;
75504;SDS011;64085;54.974;73.410;2023-07-09T00:20:16;2.63;;;2.42;;
75504;SDS011;64085;54.974;73.410;2023-07-09T00:22:43;3.47;;;2.50;;
75504;SDS011;64085;54.974;73.410;2023-07-09T00:25:20;3.28;;;2.42;;
75504;SDS011;64085;54.974;73.410;2023-07-09T00:27:46;5.60;;;2.33;;
75504;SDS011;64085;54.974;73.410;2023-07-09T00:30:17;2.53;;;2.20;;
75504;SDS011;64085;54.974;73.410;2023-07-09T00:32:47;3.05;;;2.33;;
75504;SDS011;64085;54.974;73.410;2023-07-09T00:35:13;3.45;;;2.35;;
75504;SDS011;64085;54.974;73.410;2023-07-09T00:37:42;2.65;;;2.22;;
75504;SDS011;64085;54.974;73.410;2023-07-09T00:40:16;4.03;;;2.30;;
75504;SDS011;64085;54.974;73.410;2023-07-09T00:42:45;4.28;;;2.55;;
75504;SDS011;64085;54.974;73.410;2023-07-09T00:45:20;4.97;;;2.40;;
75504;SDS011;64085;54.974;73.410;2023-07-09T00:47:52;4.35;;;2.28;;
75504;SDS011;64085;54.974;73.410;2023-07-09T00:51:04;4.93;;;2.40;;
75504;SDS011;64085;54.974;73.410;2023-07-09T00:53:19;4.15;;;2.30;;
75504;SDS011;64085;54.974;73.410;2023-07-09T00:55:50;3.47;;;2.60;;
75504;SDS011;64085;54.974;73.410;2023-07-09T00:58:21;3.45;;;2.30;;
75504;SDS011;64085;54.974;73.410;2023-07-09T01:00:55;2.80;;;2.47;;
75504;SDS011;64085;54.974;73.410;2023-07-09T01:06:28;2.58;;;1.98;;
75504;SDS011;64085;54.974;73.410;2023-07-09T01:08:58;3.50;;;2.05;;
75504;SDS011;64085;54.974;73.410;2023-07-09T01:11:26;3.22;;;2.67;;
75504;SDS011;64085;54.974;73.410;2023-07-09T01:13:52;4.63;;;2.47;;
75504;SDS011;64085;54.974;73.410;2023-07-09T01:16:21;3.88;;;2.50;;
75504;SDS011;64085;54.974;73.410;2023-07-09T01:18:50;6.95;;;2.65;;
75504;SDS011;64085;54.974;73.410;2023-07-09T01:21:17;3.95;;;2.15;;
75504;SDS011;64085;54.974;73.410;2023-07-09T01:23:43;3.03;;;2.53;;
75504;SDS011;64085;54.974;73.410;2023-07-09T01:26:11;4.28;;;2.60;;
75504;SDS011;64085;54.974;73.410;2023-07-09T01:28:50;5.32;;;2.75;;
75504;SDS011;64085;54.974;73.410;2023-07-09T01:31:16;3.90;;;2.53;;
75504;SDS011;64085;54.974;73.410;2023-07-09T01:33:42;5.13;;;2.67;;
75504;SDS011;64085;54.974;73.410;2023-07-09T01:36:10;3.45;;;2.42;;
75504;SDS011;64085;54.974;73.410;2023-07-09T01:38:39;1.85;;;1.75;;
75504;SDS011;64085;54.974;73.410;2023-07-09T01:41:05;4.63;;;2.80;;
75504;SDS011;64085;54.974;73.410;2023-07-09T01:43:32;2.95;;;2.22;;
75504;SDS011;64085;54.974;73.410;2023-07-09T01:45:59;4.18;;;2.58;;
75504;SDS011;64085;54.974;73.410;2023-07-09T01:48:25;3.95;;;2.00;;
75504;SDS011;64085;54.974;73.410;2023-07-09T01:50:52;5.03;;;2.67;;
75504;SDS011;64085;54.974;73.410;2023-07-09T01:53:21;4.85;;;2.42;;
75504;SDS011;64085;54.974;73.410;2023-07-09T01:55:50;2.92;;;2.38;;
75504;SDS011;64085;54.974;73.410;2023-07-09T01:58:17;4.10;;;2.40;;
75504;SDS011;64085;54.974;73.410;2023-07-09T02:00:43;3.55;;;2.53;;
75504;SDS011;64085;54.974;73.410;2023-07-09T02:03:10;3.35;;;2.72;;
75504;SDS011;64085;54.974;73.410;2023-07-09T02:05:36;2.25;;;2.05;;
75504;SDS011;64085;54.974;73.410;2023-07-09T02:08:02;4.35;;;2.25;;
75504;SDS011;64085;54.974;73.410;2023-07-09T02:10:29;5.40;;;2.55;;
75504;SDS011;64085;54.974;73.410;2023-07-09T02:12:55;3.33;;;2.80;;
75504;SDS011;64085;54.974;73.410;2023-07-09T02:15:20;3.88;;;2.33;;
75504;SDS011;64085;54.974;73.410;2023-07-09T02:17:46;3.00;;;2.35;;
75504;SDS011;64085;54.974;73.410;2023-07-09T02:20:12;2.97;;;2.40;;
75504;SDS011;64085;54.974;73.410;2023-07-09T02:22:38;3.05;;;2.25;;
75504;SDS011;64085;54.974;73.410;2023-07-09T02:25:04;4.03;;;2.45;;
75504;SDS011;64085;54.974;73.410;2023-07-09T02:27:31;3.45;;;2.38;;
75504;SDS011;64085;54.974;73.410;2023-07-09T02:29:58;4.60;;;2.75;;
75504;SDS011;64085;54.974;73.410;2023-07-09T02:32:25;8.45;;;3.42;;
75504;SDS011;64085;54.974;73.410;2023-07-09T02:39:47;5.60;;;2.35;;
75504;SDS011;64085;54.974;73.410;2023-07-09T02:42:13;2.33;;;1.92;;
75504;SDS011;64085;54.974;73.410;2023-07-09T02:44:41;3.58;;;2.30;;
75504;SDS011;64085;54.974;73.410;2023-07-09T02:47:08;9.07;;;2.65;;
75504;SDS011;64085;54.974;73.410;2023-07-09T02:49:35;2.80;;;2.42;;
75504;SDS011;64085;54.974;73.410;2023-07-09T02:52:00;7.65;;;2.45;;
75504;SDS011;64085;54.974;73.410;2023-07-09T02:54:27;2.50;;;2.25;;
75504;SDS011;64085;54.974;73.410;2023-07-09T02:56:52;2.17;;;1.90;;
75504;SDS011;64085;54.974;73.410;2023-07-09T02:59:18;2.67;;;1.98;;
75504;SDS011;64085;54.974;73.410;2023-07-09T03:01:45;4.70;;;2.10;;
75504;SDS011;64085;54.974;73.410;2023-07-09T03:04:13;3.17;;;2.28;;
75504;SDS011;64085;54.974;73.410;2023-07-09T03:06:39;4.15;;;2.53;;
75504;SDS011;64085;54.974;73.410;2023-07-09T03:09:05;9.00;;;2.65;;
75504;SDS011;64085;54.974;73.410;2023-07-09T03:11:32;3.70;;;2.25;;
75504;SDS011;64085;54.974;73.410;2023-07-09T03:13:59;3.05;;;2.00;;
75504;SDS011;64085;54.974;73.410;2023-07-09T03:16:29;3.13;;;2.33;;
75504;SDS011;64085;54.974;73.410;2023-07-09T03:18:56;4.30;;;2.63;;
75504;SDS011;64085;54.974;73.410;2023-07-09T03:21:23;3.70;;;2.50;;
75504;SDS011;64085;54.974;73.410;2023-07-09T03:23:50;3.10;;;2.33;;
75504;SDS011;64085;54.974;73.410;2023-07-09T03:26:17;3.38;;;2.75;;
75504;SDS011;64085;54.974;73.410;2023-07-09T03:28:43;2.08;;;1.90;;
75504;SDS011;64085;54.974;73.410;2023-07-09T03:31:09;2.85;;;2.00;;
75504;SDS011;64085;54.974;73.410;2023-07-09T03:33:34;4.20;;;1.95;;
75504;SDS011;64085;54.974;73.410;2023-07-09T03:36:00;2.55;;;2.35;;
75504;SDS011;64085;54.974;73.410;2023-07-09T03:38:26;3.85;;;2.22;;
75504;SDS011;64085;54.974;73.410;2023-07-09T03:40:52;2.80;;;2.20;;
75504;SDS011;64085;54.974;73.410;2023-07-09T03:43:19;3.05;;;2.47;;
75504;SDS011;64085;54.974;73.410;2023-07-09T03:45:46;6.30;;;2.90;;
75504;SDS011;64085;54.974;73.410;2023-07-09T03:48:12;4.85;;;2.60;;
75504;SDS011;64085;54.974;73.410;2023-07-09T03:50:39;3.58;;;3.28;;
75504;SDS011;64085;54.974;73.410;2023-07-09T03:53:04;4.70;;;2.40;;
75504;SDS011;64085;54.974;73.410;2023-07-09T03:55:33;5.05;;;2.35;;
75504;SDS011;64085;54.974;73.410;2023-07-09T03:57:58;2.75;;;2.38;;
75504;SDS011;64085;54.974;73.410;2023-07-09T04:00:24;5.50;;;2.70;;
75504;SDS011;64085;54.974;73.410;2023-07-09T04:02:50;6.40;;;2.67;;
75504;SDS011;64085;54.974;73.410;2023-07-09T04:05:17;8.13;;;2.70;;
75504;SDS011;64085;54.974;73.410;2023-07-09T04:07:43;5.35;;;2.35;;
75504;SDS011;64085;54.974;73.410;2023-07-09T04:10:09;3.33;;;2.42;;
75504;SDS011;64085;54.974;73.410;2023-07-09T04:12:36;3.17;;;2.22;;
75504;SDS011;64085;54.974;73.410;2023-07-09T04:15:05;2.70;;;1.83;;
75504;SDS011;64085;54.974;73.410;2023-07-09T04:17:32;1.98;;;1.73;;
75504;SDS011;64085;54.974;73.410;2023-07-09T04:19:58;2.78;;;2.13;;
75504;SDS011;64085;54.974;73.410;2023-07-09T04:22:23;5.30;;;2.78;;
75504;SDS011;64085;54.974;73.410;2023-07-09T04:24:49;5.22;;;2.00;;
75504;SDS011;64085;54.974;73.410;2023-07-09T04:27:17;5.45;;;1.92;;
75504;SDS011;64085;54.974;73.410;2023-07-09T04:29:43;6.97;;;2.30;;
75504;SDS011;64085;54.974;73.410;2023-07-09T04:32:12;5.65;;;1.83;;
75504;SDS011;64085;54.974;73.410;2023-07-09T04:34:39;3.13;;;1.90;;
75504;SDS011;64085;54.974;73.410;2023-07-09T04:37:08;6.25;;;2.38;;
75504;SDS011;64085;54.974;73.410;2023-07-09T04:39:36;2.58;;;1.70;;
75504;SDS011;64085;54.974;73.410;2023-07-09T04:42:02;3.55;;;1.92;;
75504;SDS011;64085;54.974;73.410;2023-07-09T04:44:28;6.55;;;2.08;;
75504;SDS011;64085;54.974;73.410;2023-07-09T04:46:54;4.82;;;2.08;;
75504;SDS011;64085;54.974;73.410;2023-07-09T04:49:20;2.65;;;1.90;;
75504;SDS011;64085;54.974;73.410;2023-07-09T04:51:45;1.73;;;1.38;;
75504;SDS011;64085;54.974;73.410;2023-07-09T04:54:11;4.78;;;2.25;;
75504;SDS011;64085;54.974;73.410;2023-07-09T04:56:40;2.78;;;1.63;;
75504;SDS011;64085;54.974;73.410;2023-07-09T04:59:10;4.30;;;1.65;;
75504;SDS011;64085;54.974;73.410;2023-07-09T05:01:36;4.53;;;2.00;;
75504;SDS011;64085;54.974;73.410;2023-07-09T05:04:02;1.92;;;1.80;;
75504;SDS011;64085;54.974;73.410;2023-07-09T05:06:28;2.05;;;1.85;;
75504;SDS011;64085;54.974;73.410;2023-07-09T05:08:53;3.88;;;2.55;;
75504;SDS011;64085;54.974;73.410;2023-07-09T05:11:21;4.25;;;2.00;;
75504;SDS011;64085;54.974;73.410;2023-07-09T05:13:47;3.33;;;2.05;;
75504;SDS011;64085;54.974;73.410;2023-07-09T05:16:13;2.90;;;1.70;;
75504;SDS011;64085;54.974;73.410;2023-07-09T05:18:39;2.97;;;1.90;;
75504;SDS011;64085;54.974;73.410;2023-07-09T05:21:04;2.00;;;1.80;;
75504;SDS011;64085;54.974;73.410;2023-07-09T05:23:30;3.63;;;1.90;;
75504;SDS011;64085;54.974;73.410;2023-07-09T05:25:59;3.55;;;2.25;;
75504;SDS011;64085;54.974;73.410;2023-07-09T05:28:27;4.10;;;1.90;;
75504;SDS011;64085;54.974;73.410;2023-07-09T05:30:53;5.97;;;1.95;;
75504;SDS011;64085;54.974;73.410;2023-07-09T05:33:19;2.33;;;1.73;;
75504;SDS011;64085;54.974;73.410;2023-07-09T05:35:45;3.85;;;1.63;;
75504;SDS011;64085;54.974;73.410;2023-07-09T05:38:12;3.67;;;2.00;;
75504;SDS011;64085;54.974;73.410;2023-07-09T05:40:38;1.75;;;1.63;;
75504;SDS011;64085;54.974;73.410;2023-07-09T05:43:04;2.63;;;1.58;;
75504;SDS011;64085;54.974;73.410;2023-07-09T05:45:30;5.38;;;2.00;;
75504;SDS011;64085;54.974;73.410;2023-07-09T05:47:57;3.10;;;2.30;;
75504;SDS011;64085;54.974;73.410;2023-07-09T05:50:23;3.35;;;1.85;;
75504;SDS011;64085;54.974;73.410;2023-07-09T05:52:49;3.67;;;1.70;;
75504;SDS011;64085;54.974;73.410;2023-07-09T05:55:14;2.63;;;1.73;;
75504;SDS011;64085;54.974;73.410;2023-07-09T05:57:40;6.38;;;2.00;;
75504;SDS011;64085;54.974;73.410;2023-07-09T06:00:06;1.80;;;1.45;;
75504;SDS011;64085;54.974;73.410;2023-07-09T06:02:34;3.67;;;2.10;;
75504;SDS011;64085;54.974;73.410;2023-07-09T06:04:59;2.22;;;1.60;;
75504;SDS011;64085;54.974;73.410;2023-07-09T06:07:25;3.35;;;1.80;;
75504;SDS011;64085;54.974;73.410;2023-07-09T06:09:51;3.42;;;2.35;;
75504;SDS011;64085;54.974;73.410;2023-07-09T06:12:17;4.90;;;1.88;;
75504;SDS011;64085;54.974;73.410;2023-07-09T06:14:47;5.15;;;1.80;;
75504;SDS011;64085;54.974;73.410;2023-07-09T06:17:13;3.10;;;1.65;;
75504;SDS011;64085;54.974;73.410;2023-07-09T06:19:38;3.72;;;2.08;;
75504;SDS011;64085;54.974;73.410;2023-07-09T06:22:04;3.28;;;1.70;;
75504;SDS011;64085;54.974;73.410;2023-07-09T06:24:30;2.50;;;1.70;;
75504;SDS011;64085;54.974;73.410;2023-07-09T06:26:56;2.70;;;1.67;;
75504;SDS011;64085;54.974;73.410;2023-07-09T06:29:21;4.47;;;1.88;;
75504;SDS011;64085;54.974;73.410;2023-07-09T06:31:47;2.42;;;1.80;;
75504;SDS011;64085;54.974;73.410;2023-07-09T06:34:13;3.15;;;2.25;;
75504;SDS011;64085;54.974;73.410;2023-07-09T06:36:38;2.30;;;1.73;;
75504;SDS011;64085;54.974;73.410;2023-07-09T06:39:04;3.05;;;1.90;;
75504;SDS011;64085;54.974;73.410;2023-07-09T06:41:30;2.33;;;2.13;;
75504;SDS011;64085;54.974;73.410;2023-07-09T06:44:04;2.85;;;1.70;;
75504;SDS011;64085;54.974;73.410;2023-07-09T06:46:31;3.47;;;2.00;;
75504;SDS011;64085;54.974;73.410;2023-07-09T06:48:56;2.30;;;1.80;;
75504;SDS011;64085;54.974;73.410;2023-07-09T06:51:22;5.30;;;1.85;;
75504;SDS011;64085;54.974;73.410;2023-07-09T06:53:48;1.55;;;1.35;;
75504;SDS011;64085;54.974;73.410;2023-07-09T06:56:15;2.97;;;1.90;;
75504;SDS011;64085;54.974;73.410;2023-07-09T06:58:41;2.80;;;1.58;;
75504;SDS011;64085;54.974;73.410;2023-07-09T07:01:07;3.90;;;1.65;;
75504;SDS011;64085;54.974;73.410;2023-07-09T07:03:35;3.03;;;1.80;;
75504;SDS011;64085;54.974;73.410;2023-07-09T07:06:00;4.80;;;2.05;;
75504;SDS011;64085;54.974;73.410;2023-07-09T07:08:27;3.28;;;2.45;;
75504;SDS011;64085;54.974;73.410;2023-07-09T07:10:54;2.30;;;1.58;;
75504;SDS011;64085;54.974;73.410;2023-07-09T07:13:30;3.88;;;1.90;;
75504;SDS011;64085;54.974;73.410;2023-07-09T07:16:01;3.85;;;1.77;;
75504;SDS011;64085;54.974;73.410;2023-07-09T07:18:28;3.50;;;1.70;;
75504;SDS011;64085;54.974;73.410;2023-07-09T07:20:54;5.88;;;2.10;;
75504;SDS011;64085;54.974;73.410;2023-07-09T07:23:20;5.95;;;2.05;;
75504;SDS011;64085;54.974;73.410;2023-07-09T07:25:46;5.55;;;1.95;;
75504;SDS011;64085;54.974;73.410;2023-07-09T07:28:12;3.63;;;1.52;;
75504;SDS011;64085;54.974;73.410;2023-07-09T07:30:38;3.67;;;2.25;;
75504;SDS011;64085;54.974;73.410;2023-07-09T07:33:03;3.55;;;1.92;;
75504;SDS011;64085;54.974;73.410;2023-07-09T07:35:29;1.77;;;1.55;;
75504;SDS011;64085;54.974;73.410;2023-07-09T07:37:55;2.03;;;1.83;;
75504;SDS011;64085;54.974;73.410;2023-07-09T07:40:21;3.28;;;2.40;;
75504;SDS011;64085;54.974;73.410;2023-07-09T07:42:46;3.20;;;2.35;;
75504;SDS011;64085;54.974;73.410;2023-07-09T07:45:12;3.58;;;1.80;;
75504;SDS011;64085;54.974;73.410;2023-07-09T07:47:38;3.55;;;1.58;;
75504;SDS011;64085;54.974;73.410;2023-07-09T07:50:05;1.60;;;1.45;;
75504;SDS011;64085;54.974;73.410;2023-07-09T07:52:32;5.40;;;2.13;;
75504;SDS011;64085;54.974;73.410;2023-07-09T07:54:58;2.85;;;1.83;;
75504;SDS011;64085;54.974;73.410;2023-07-09T07:57:26;6.88;;;2.33;;
75504;SDS011;64085;54.974;73.410;2023-07-09T07:59:52;6.07;;;2.03;;
75504;SDS011;64085;54.974;73.410;2023-07-09T08:02:18;3.80;;;1.63;;
75504;SDS011;64085;54.974;73.410;2023-07-09T08:04:43;2.92;;;2.00;;
75504;SDS011;64085;54.974;73.410;2023-07-09T08:07:09;1.77;;;1.42;;
75504;SDS011;64085;54.974;73.410;2023-07-09T08:09:36;2.90;;;2.03;;
75504;SDS011;64085;54.974;73.410;2023-07-09T08:12:02;4.13;;;1.80;;
75504;SDS011;64085;54.974;73.410;2023-07-09T08:14:34;3.58;;;1.90;;
75504;SDS011;64085;54.974;73.410;2023-07-09T08:17:00;4.60;;;2.22;;
75504;SDS011;64085;54.974;73.410;2023-07-09T08:19:26;5.60;;;2.42;;
75504;SDS011;64085;54.974;73.410;2023-07-09T08:21:52;6.97;;;2.47;;
75504;SDS011;64085;54.974;73.410;2023-07-09T08:24:18;8.45;;;2.72;;
75504;SDS011;64085;54.974;73.410;2023-07-09T08:26:43;3.85;;;1.90;;
75504;SDS011;64085;54.974;73.410;2023-07-09T08:29:09;2.55;;;1.90;;
75504;SDS011;64085;54.974;73.410;2023-07-09T08:31:35;2.90;;;1.98;;
75504;SDS011;64085;54.974;73.410;2023-07-09T08:34:01;1.65;;;1.55;;
75504;SDS011;64085;54.974;73.410;2023-07-09T08:36:26;1.42;;;1.33;;
75504;SDS011;64085;54.974;73.410;2023-07-09T08:38:52;4.30;;;1.70;;
75504;SDS011;64085;54.974;73.410;2023-07-09T08:47:07;4.28;;;2.55;;
75504;SDS011;64085;54.974;73.410;2023-07-09T08:52:53;5.10;;;2.10;;
75504;SDS011;64085;54.974;73.410;2023-07-09T08:55:08;2.10;;;1.90;;
75504;SDS011;64085;54.974;73.410;2023-07-09T08:57:43;2.80;;;1.90;;
75504;SDS011;64085;54.974;73.410;2023-07-09T09:00:17;2.30;;;1.55;;
75504;SDS011;64085;54.974;73.410;2023-07-09T09:02:52;1.95;;;1.77;;
75504;SDS011;64085;54.974;73.410;2023-07-09T09:05:24;1.80;;;1.40;;
75504;SDS011;64085;54.974;73.410;2023-07-09T09:08:01;6.30;;;2.10;;
75504;SDS011;64085;54.974;73.410;2023-07-09T09:10:54;3.78;;;1.83;;
75504;SDS011;64085;54.974;73.410;2023-07-09T09:13:26;3.55;;;1.60;;
75504;SDS011;64085;54.974;73.410;2023-07-09T09:15:55;4.05;;;1.92;;
75504;SDS011;64085;54.974;73.410;2023-07-09T09:18:39;4.35;;;2.20;;
75504;SDS011;64085;54.974;73.410;2023-07-09T09:21:10;2.47;;;1.77;;
75504;SDS011;64085;54.974;73.410;2023-07-09T09:23:44;2.67;;;1.92;;
75504;SDS011;64085;54.974;73.410;2023-07-09T09:26:55;6.18;;;2.25;;
75504;SDS011;64085;54.974;73.410;2023-07-09T09:29:12;8.38;;;2.47;;
75504;SDS011;64085;54.974;73.410;2023-07-09T09:31:39;2.13;;;1.90;;
75504;SDS011;64085;54.974;73.410;2023-07-09T09:36:42;4.45;;;2.03;;
75504;SDS011;64085;54.974;73.410;2023-07-09T09:39:08;3.85;;;2.03;;
75504;SDS011;64085;54.974;73.410;2023-07-09T09:41:36;4.65;;;2.08;;
75504;SDS011;64085;54.974;73.410;2023-07-09T09:44:05;3.30;;;2.13;;
75504;SDS011;64085;54.974;73.410;2023-07-09T09:46:40;6.13;;;2.42;;
75504;SDS011;64085;54.974;73.410;2023-07-09T09:49:08;3.95;;;2.05;;
75504;SDS011;64085;54.974;73.410;2023-07-09T09:51:35;2.63;;;2.00;;
75504;SDS011;64085;54.974;73.410;2023-07-09T09:54:08;7.65;;;2.25;;
75504;SDS011;64085;54.974;73.410;2023-07-09T09:56:42;3.22;;;2.22;;
75504;SDS011;64085;54.974;73.410;2023-07-09T09:59:18;4.05;;;2.28;;
75504;SDS011;64085;54.974;73.410;2023-07-09T10:01:45;4.97;;;2.20;;
75504;SDS011;64085;54.974;73.410;2023-07-09T10:04:15;5.07;;;2.47;;
75504;SDS011;64085;54.974;73.410;2023-07-09T10:06:45;3.83;;;2.22;;
75504;SDS011;64085;54.974;73.410;2023-07-09T10:12:01;3.35;;;2.22;;
75504;SDS011;64085;54.974;73.410;2023-07-09T10:25:25;5.63;;;2.65;;
75504;SDS011;64085;54.974;73.410;2023-07-09T10:28:06;9.50;;;3.38;;
75504;SDS011;64085;54.974;73.410;2023-07-09T10:31:04;7.75;;;3.22;;
75504;SDS011;64085;54.974;73.410;2023-07-09T10:36:39;4.85;;;2.35;;
75504;SDS011;64085;54.974;73.410;2023-07-09T10:39:26;7.57;;;2.70;;
75504;SDS011;64085;54.974;73.410;2023-07-09T10:42:18;3.42;;;1.98;;
75504;SDS011;64085;54.974;73.410;2023-07-09T10:45:01;7.50;;;2.67;;
75504;SDS011;64085;54.974;73.410;2023-07-09T10:50:51;6.95;;;2.88;;
75504;SDS011;64085;54.974;73.410;2023-07-09T10:53:14;5.47;;;3.47;;
75504;SDS011;64085;54.974;73.410;2023-07-09T10:55:55;8.63;;;3.45;;
75504;SDS011;64085;54.974;73.410;2023-07-09T11:00:50;7.78;;;3.20;;
75504;SDS011;64085;54.974;73.410;2023-07-09T11:06:21;13.50;;;3.13;;
75504;SDS011;64085;54.974;73.410;2023-07-09T11:08:52;14.38;;;4.03;;
75504;SDS011;64085;54.974;73.410;2023-07-09T11:11:24;10.65;;;3.10;;
75504;SDS011;64085;54.974;73.410;2023-07-09T11:13:59;10.82;;;3.30;;
75504;SDS011;64085;54.974;73.410;2023-07-09T11:16:47;7.53;;;3.67;;
75504;SDS011;64085;54.974;73.410;2023-07-09T11:19:14;4.85;;;2.55;;
75504;SDS011;64085;54.974;73.410;2023-07-09T11:21:59;8.55;;;2.92;;
75504;SDS011;64085;54.974;73.410;2023-07-09T11:24:31;8.95;;;3.35;;
75504;SDS011;64085;54.974;73.410;2023-07-09T11:26:59;8.20;;;3.97;;
75504;SDS011;64085;54.974;73.410;2023-07-09T11:29:26;14.90;;;3.90;;
75504;SDS011;64085;54.974;73.410;2023-07-09T11:31:54;13.07;;;3.88;;
75504;SDS011;64085;54.974;73.410;2023-07-09T11:34:20;7.25;;;4.55;;
75504;SDS011;64085;54.974;73.410;2023-07-09T11:36:57;7.78;;;4.78;;
75504;SDS011;64085;54.974;73.410;2023-07-09T11:41:54;11.38;;;4.30;;
75504;SDS011;64085;54.974;73.410;2023-07-09T11:44:22;9.10;;;4.65;;
75504;SDS011;64085;54.974;73.410;2023-07-09T11:49:24;7.85;;;3.20;;
75504;SDS011;64085;54.974;73.410;2023-07-09T11:51:54;12.57;;;2.80;;
75504;SDS011;64085;54.974;73.410;2023-07-09T11:54:24;7.00;;;3.13;;
75504;SDS011;64085;54.974;73.410;2023-07-09T11:56:56;6.05;;;3.50;;
75504;SDS011;64085;54.974;73.410;2023-07-09T11:59:24;4.40;;;2.50;;
75504;SDS011;64085;54.974;73.410;2023-07-09T12:01:50;4.53;;;2.40;;
75504;SDS011;64085;54.974;73.410;2023-07-09T12:04:19;5.10;;;3.30;;
75504;SDS011;64085;54.974;73.410;2023-07-09T12:06:57;6.80;;;3.83;;
75504;SDS011;64085;54.974;73.410;2023-07-09T12:09:29;6.95;;;3.20;;
75504;SDS011;64085;54.974;73.410;2023-07-09T12:11:57;4.07;;;2.85;;
75504;SDS011;64085;54.974;73.410;2023-07-09T12:14:23;4.85;;;3.03;;
75504;SDS011;64085;54.974;73.410;2023-07-09T12:16:50;5.00;;;3.47;;
75504;SDS011;64085;54.974;73.410;2023-07-09T12:21:48;5.25;;;3.63;;
75504;SDS011;64085;54.974;73.410;2023-07-09T12:24:36;4.25;;;3.28;;
75504;SDS011;64085;54.974;73.410;2023-07-09T12:27:16;11.38;;;4.88;;
75504;SDS011;64085;54.974;73.410;2023-07-09T12:29:44;9.63;;;3.92;;
75504;SDS011;64085;54.974;73.410;2023-07-09T12:32:12;3.85;;;3.22;;
75504;SDS011;64085;54.974;73.410;2023-07-09T12:34:42;6.18;;;3.70;;
75504;SDS011;64085;54.974;73.410;2023-07-09T12:37:13;5.00;;;3.33;;
75504;SDS011;64085;54.974;73.410;2023-07-09T12:39:40;6.03;;;3.85;;
75504;SDS011;64085;54.974;73.410;2023-07-09T12:42:09;5.68;;;2.95;;
75504;SDS011;64085;54.974;73.410;2023-07-09T12:44:41;9.77;;;4.65;;
75504;SDS011;64085;54.974;73.410;2023-07-09T12:47:07;5.93;;;3.97;;
75504;SDS011;64085;54.974;73.410;2023-07-09T12:49:43;6.50;;;3.90;;
75504;SDS011;64085;54.974;73.410;2023-07-09T12:52:20;8.10;;;5.15;;
75504;SDS011;64085;54.974;73.410;2023-07-09T12:54:57;9.65;;;5.50;;
75504;SDS011;64085;54.974;73.410;2023-07-09T12:57:26;6.93;;;3.97;;
75504;SDS011;64085;54.974;73.410;2023-07-09T12:59:56;5.28;;;4.30;;
75504;SDS011;64085;54.974;73.410;2023-07-09T13:02:24;7.13;;;4.78;;
75504;SDS011;64085;54.974;73.410;2023-07-09T13:05:05;5.05;;;3.80;;
75504;SDS011;64085;54.974;73.410;2023-07-09T13:07:41;6.28;;;3.75;;
75504;SDS011;64085;54.974;73.410;2023-07-09T13:10:15;4.03;;;3.08;;
75504;SDS011;64085;54.974;73.410;2023-07-09T13:12:44;9.23;;;3.70;;
75504;SDS011;64085;54.974;73.410;2023-07-09T13:15:23;4.30;;;3.85;;
75504;SDS011;64085;54.974;73.410;2023-07-09T13:17:48;6.68;;;4.82;;
75504;SDS011;64085;54.974;73.410;2023-07-09T13:20:14;13.38;;;5.00;;
75504;SDS011;64085;54.974;73.410;2023-07-09T13:22:41;7.18;;;4.13;;
75504;SDS011;64085;54.974;73.410;2023-07-09T13:25:08;7.32;;;4.35;;
75504;SDS011;64085;54.974;73.410;2023-07-09T13:27:37;7.57;;;4.93;;
75504;SDS011;64085;54.974;73.410;2023-07-09T13:30:03;5.28;;;3.70;;
75504;SDS011;64085;54.974;73.410;2023-07-09T13:32:29;5.10;;;3.90;;
75504;SDS011;64085;54.974;73.410;2023-07-09T13:34:55;4.18;;;3.78;;
75504;SDS011;64085;54.974;73.410;2023-07-09T13:37:22;6.35;;;4.55;;
75504;SDS011;64085;54.974;73.410;2023-07-09T13:39:48;5.38;;;4.70;;
75504;SDS011;64085;54.974;73.410;2023-07-09T13:42:15;8.55;;;5.45;;
75504;SDS011;64085;54.974;73.410;2023-07-09T13:44:43;7.82;;;4.82;;
75504;SDS011;64085;54.974;73.410;2023-07-09T13:47:16;8.32;;;4.82;;
75504;SDS011;64085;54.974;73.410;2023-07-09T13:49:44;5.50;;;4.55;;
75504;SDS011;64085;54.974;73.410;2023-07-09T13:54:42;10.10;;;5.60;;
75504;SDS011;64085;54.974;73.410;2023-07-09T13:57:11;12.90;;;6.53;;
75504;SDS011;64085;54.974;73.410;2023-07-09T13:59:39;7.93;;;6.32;;
75504;SDS011;64085;54.974;73.410;2023-07-09T14:02:14;7.53;;;5.45;;
75504;SDS011;64085;54.974;73.410;2023-07-09T14:04:45;9.98;;;5.10;;
75504;SDS011;64085;54.974;73.410;2023-07-09T14:07:44;7.85;;;4.60;;
75504;SDS011;64085;54.974;73.410;2023-07-09T14:10:07;9.38;;;5.25;;
75504;SDS011;64085;54.974;73.410;2023-07-09T14:12:38;9.20;;;4.80;;
75504;SDS011;64085;54.974;73.410;2023-07-09T14:15:26;6.25;;;4.70;;
75504;SDS011;64085;54.974;73.410;2023-07-09T14:17:51;7.68;;;5.13;;
75504;SDS011;64085;54.974;73.410;2023-07-09T14:20:17;7.43;;;5.40;;
75504;SDS011;64085;54.974;73.410;2023-07-09T14:22:43;11.38;;;5.10;;
75504;SDS011;64085;54.974;73.410;2023-07-09T14:25:30;9.90;;;5.32;;
75504;SDS011;64085;54.974;73.410;2023-07-09T14:27:55;11.85;;;5.13;;
75504;SDS011;64085;54.974;73.410;2023-07-09T14:30:22;8.57;;;5.20;;
75504;SDS011;64085;54.974;73.410;2023-07-09T14:32:49;8.43;;;5.70;;
75504;SDS011;64085;54.974;73.410;2023-07-09T14:35:23;11.77;;;5.28;;
75504;SDS011;64085;54.974;73.410;2023-07-09T14:37:51;8.55;;;5.78;;
75504;SDS011;64085;54.974;73.410;2023-07-09T14:40:19;13.02;;;7.15;;
75504;SDS011;64085;54.974;73.410;2023-07-09T14:42:46;9.35;;;7.18;;
75504;SDS011;64085;54.974;73.410;2023-07-09T14:45:17;13.93;;;6.75;;
75504;SDS011;64085;54.974;73.410;2023-07-09T14:47:43;8.90;;;6.78;;
75504;SDS011;64085;54.974;73.410;2023-07-09T14:50:09;15.55;;;7.68;;
75504;SDS011;64085;54.974;73.410;2023-07-09T14:52:40;10.85;;;6.55;;
75504;SDS011;64085;54.974;73.410;2023-07-09T14:55:09;9.57;;;6.50;;
75504;SDS011;64085;54.974;73.410;2023-07-09T14:57:39;8.00;;;5.68;;
75504;SDS011;64085;54.974;73.410;2023-07-09T15:00:05;8.55;;;4.43;;
75504;SDS011;64085;54.974;73.410;2023-07-09T15:02:33;10.95;;;5.75;;
75504;SDS011;64085;54.974;73.410;2023-07-09T15:05:01;8.85;;;4.60;;
75504;SDS011;64085;54.974;73.410;2023-07-09T15:07:28;6.60;;;4.35;;
75504;SDS011;64085;54.974;73.410;2023-07-09T15:09:59;11.65;;;7.68;;
75504;SDS011;64085;54.974;73.410;2023-07-09T15:12:30;8.88;;;5.25;;
75504;SDS011;64085;54.974;73.410;2023-07-09T15:15:01;10.57;;;5.53;;
75504;SDS011;64085;54.974;73.410;2023-07-09T15:17:37;7.85;;;4.03;;
75504;SDS011;64085;54.974;73.410;2023-07-09T15:20:03;5.65;;;4.80;;
75504;SDS011;64085;54.974;73.410;2023-07-09T15:22:33;9.55;;;5.15;;
75504;SDS011;64085;54.974;73.410;2023-07-09T15:25:00;10.10;;;5.60;;
75504;SDS011;64085;54.974;73.410;2023-07-09T15:27:26;8.80;;;4.75;;
75504;SDS011;64085;54.974;73.410;2023-07-09T15:29:52;9.35;;;4.88;;
75504;SDS011;64085;54.974;73.410;2023-07-09T15:32:18;8.27;;;4.70;;
75504;SDS011;64085;54.974;73.410;2023-07-09T15:34:44;9.63;;;5.07;;
75504;SDS011;64085;54.974;73.410;2023-07-09T15:37:14;9.90;;;4.40;;